sensor_id;sensor_type;location;lat;lon;timestamp;P1;durP1;ratioP1;P2;durP2;ratioP2
15931;SDS011;8065;49.520;11.284;2024-01-30T00:01:52;7.17;;;5.50;;
15931;SDS011;8065;49.520;11.284;2024-01-30T00:04:20;7.93;;;5.33;;
15931;SDS011;8065;49.520;11.284;2024-01-30T00:06:49;7.07;;;5.13;;
15931;SDS011;8065;49.520;11.284;2024-01-30T00:09:18;8.70;;;5.33;;
15931;SDS011;8065;49.520;11.284;2024-01-30T00:11:46;7.50;;;5.37;;
15931;SDS011;8065;49.520;11.284;2024-01-30T00:14:15;7.03;;;5.00;;
15931;SDS011;8065;49.520;11.284;2024-01-30T00:16:46;11.03;;;5.83;;
15931;SDS011;8065;49.520;11.284;2024-01-30T00:19:14;8.67;;;5.47;;
15931;SDS011;8065;49.520;11.284;2024-01-30T00:21:42;6.77;;;5.00;;
15931;SDS011;8065;49.520;11.284;2024-01-30T00:24:11;8.30;;;5.07;;
15931;SDS011;8065;49.520;11.284;2024-01-30T00:26:39;7.57;;;5.30;;
15931;SDS011;8065;49.520;11.284;2024-01-30T00:29:07;8.00;;;5.23;;
15931;SDS011;8065;49.520;11.284;2024-01-30T00:31:36;9.10;;;5.30;;
15931;SDS011;8065;49.520;11.284;2024-01-30T00:34:06;10.83;;;5.73;;
15931;SDS011;8065;49.520;11.284;2024-01-30T00:36:35;9.23;;;5.33;;
15931;SDS011;8065;49.520;11.284;2024-01-30T00:39:03;9.07;;;5.17;;
15931;SDS011;8065;49.520;11.284;2024-01-30T00:41:34;7.83;;;4.97;;
15931;SDS011;8065;49.520;11.284;2024-01-30T00:44:02;8.27;;;5.17;;
15931;SDS011;8065;49.520;11.284;2024-01-30T00:46:31;7.80;;;5.13;;
15931;SDS011;8065;49.520;11.284;2024-01-30T00:48:59;9.90;;;4.97;;
15931;SDS011;8065;49.520;11.284;2024-01-30T00:51:30;9.07;;;4.90;;
15931;SDS011;8065;49.520;11.284;2024-01-30T00:53:58;12.87;;;5.40;;
15931;SDS011;8065;49.520;11.284;2024-01-30T00:56:27;8.37;;;5.07;;
15931;SDS011;8065;49.520;11.284;2024-01-30T00:58:56;11.23;;;5.30;;
15931;SDS011;8065;49.520;11.284;2024-01-30T01:01:24;9.20;;;5.37;;
15931;SDS011;8065;49.520;11.284;2024-01-30T01:03:52;6.93;;;5.57;;
15931;SDS011;8065;49.520;11.284;2024-01-30T01:06:21;6.83;;;4.90;;
15931;SDS011;8065;49.520;11.284;2024-01-30T01:08:52;7.50;;;5.13;;
15931;SDS011;8065;49.520;11.284;2024-01-30T01:11:20;9.57;;;5.43;;
15931;SDS011;8065;49.520;11.284;2024-01-30T01:13:48;8.10;;;5.57;;
15931;SDS011;8065;49.520;11.284;2024-01-30T01:16:16;7.77;;;4.97;;
15931;SDS011;8065;49.520;11.284;2024-01-30T01:18:45;7.60;;;4.93;;
15931;SDS011;8065;49.520;11.284;2024-01-30T01:21:13;6.80;;;4.63;;
15931;SDS011;8065;49.520;11.284;2024-01-30T01:23:42;8.70;;;5.57;;
15931;SDS011;8065;49.520;11.284;2024-01-30T01:26:12;8.47;;;4.97;;
15931;SDS011;8065;49.520;11.284;2024-01-30T01:28:41;7.60;;;5.13;;
15931;SDS011;8065;49.520;11.284;2024-01-30T01:31:09;8.83;;;5.23;;
15931;SDS011;8065;49.520;11.284;2024-01-30T01:33:37;7.33;;;5.10;;
15931;SDS011;8065;49.520;11.284;2024-01-30T01:36:06;5.23;;;4.50;;
15931;SDS011;8065;49.520;11.284;2024-01-30T01:38:34;7.10;;;4.87;;
15931;SDS011;8065;49.520;11.284;2024-01-30T01:41:02;6.83;;;5.20;;
15931;SDS011;8065;49.520;11.284;2024-01-30T01:43:34;5.60;;;4.90;;
15931;SDS011;8065;49.520;11.284;2024-01-30T01:46:03;7.00;;;4.90;;
15931;SDS011;8065;49.520;11.284;2024-01-30T01:48:32;7.67;;;4.93;;
15931;SDS011;8065;49.520;11.284;2024-01-30T01:51:00;6.47;;;4.83;;
15931;SDS011;8065;49.520;11.284;2024-01-30T01:53:29;6.73;;;4.40;;
15931;SDS011;8065;49.520;11.284;2024-01-30T01:55:58;7.83;;;5.00;;
15931;SDS011;8065;49.520;11.284;2024-01-30T01:58:26;5.73;;;4.30;;
15931;SDS011;8065;49.520;11.284;2024-01-30T02:00:59;8.67;;;4.63;;
15931;SDS011;8065;49.520;11.284;2024-01-30T02:03:27;7.17;;;5.00;;
15931;SDS011;8065;49.520;11.284;2024-01-30T02:05:56;6.67;;;4.77;;
15931;SDS011;8065;49.520;11.284;2024-01-30T02:08:24;4.93;;;4.40;;
15931;SDS011;8065;49.520;11.284;2024-01-30T02:10:53;7.77;;;4.90;;
15931;SDS011;8065;49.520;11.284;2024-01-30T02:13:21;5.97;;;4.40;;
15931;SDS011;8065;49.520;11.284;2024-01-30T02:15:50;7.73;;;5.13;;
15931;SDS011;8065;49.520;11.284;2024-01-30T02:18:22;5.47;;;4.53;;
15931;SDS011;8065;49.520;11.284;2024-01-30T02:20:50;5.73;;;4.33;;
15931;SDS011;8065;49.520;11.284;2024-01-30T02:23:23;7.13;;;4.87;;
15931;SDS011;8065;49.520;11.284;2024-01-30T02:25:52;7.03;;;4.73;;
15931;SDS011;8065;49.520;11.284;2024-01-30T02:28:21;6.93;;;4.77;;
15931;SDS011;8065;49.520;11.284;2024-01-30T02:30:49;6.10;;;4.80;;
15931;SDS011;8065;49.520;11.284;2024-01-30T02:33:17;7.50;;;5.00;;
15931;SDS011;8065;49.520;11.284;2024-01-30T02:35:47;9.70;;;5.17;;
15931;SDS011;8065;49.520;11.284;2024-01-30T02:38:15;8.93;;;4.80;;
15931;SDS011;8065;49.520;11.284;2024-01-30T02:40:46;7.23;;;5.23;;
15931;SDS011;8065;49.520;11.284;2024-01-30T02:43:15;6.80;;;4.50;;
15931;SDS011;8065;49.520;11.284;2024-01-30T02:45:44;6.90;;;4.90;;
15931;SDS011;8065;49.520;11.284;2024-01-30T02:48:12;7.80;;;4.97;;
15931;SDS011;8065;49.520;11.284;2024-01-30T02:50:41;6.90;;;4.93;;
15931;SDS011;8065;49.520;11.284;2024-01-30T02:53:09;7.30;;;4.73;;
15931;SDS011;8065;49.520;11.284;2024-01-30T02:55:37;5.93;;;4.67;;
15931;SDS011;8065;49.520;11.284;2024-01-30T02:58:08;6.87;;;4.80;;
15931;SDS011;8065;49.520;11.284;2024-01-30T03:00:36;7.93;;;4.70;;
15931;SDS011;8065;49.520;11.284;2024-01-30T03:03:04;6.87;;;4.63;;
15931;SDS011;8065;49.520;11.284;2024-01-30T03:05:33;6.97;;;4.67;;
15931;SDS011;8065;49.520;11.284;2024-01-30T03:08:01;5.87;;;4.57;;
15931;SDS011;8065;49.520;11.284;2024-01-30T03:10:29;7.40;;;4.60;;
15931;SDS011;8065;49.520;11.284;2024-01-30T03:12:58;7.50;;;4.20;;
15931;SDS011;8065;49.520;11.284;2024-01-30T03:15:29;5.57;;;4.53;;
15931;SDS011;8065;49.520;11.284;2024-01-30T03:17:57;6.83;;;4.57;;
15931;SDS011;8065;49.520;11.284;2024-01-30T03:20:25;6.53;;;4.40;;
15931;SDS011;8065;49.520;11.284;2024-01-30T03:22:54;10.53;;;5.17;;
15931;SDS011;8065;49.520;11.284;2024-01-30T03:25:23;6.80;;;4.77;;
15931;SDS011;8065;49.520;11.284;2024-01-30T03:27:52;8.13;;;5.27;;
15931;SDS011;8065;49.520;11.284;2024-01-30T03:30:20;8.63;;;5.83;;
15931;SDS011;8065;49.520;11.284;2024-01-30T03:32:51;9.73;;;6.13;;
15931;SDS011;8065;49.520;11.284;2024-01-30T03:35:19;9.23;;;5.77;;
15931;SDS011;8065;49.520;11.284;2024-01-30T03:37:47;8.30;;;5.60;;
15931;SDS011;8065;49.520;11.284;2024-01-30T03:40:15;8.60;;;5.60;;
15931;SDS011;8065;49.520;11.284;2024-01-30T03:42:44;8.30;;;5.57;;
15931;SDS011;8065;49.520;11.284;2024-01-30T03:45:12;7.80;;;6.10;;
15931;SDS011;8065;49.520;11.284;2024-01-30T03:47:43;13.67;;;6.00;;
15931;SDS011;8065;49.520;11.284;2024-01-30T03:50:14;9.43;;;6.03;;
15931;SDS011;8065;49.520;11.284;2024-01-30T03:52:42;9.13;;;6.10;;
15931;SDS011;8065;49.520;11.284;2024-01-30T03:55:10;8.13;;;5.47;;
15931;SDS011;8065;49.520;11.284;2024-01-30T03:57:39;8.57;;;5.80;;
15931;SDS011;8065;49.520;11.284;2024-01-30T04:00:07;7.73;;;5.67;;
15931;SDS011;8065;49.520;11.284;2024-01-30T04:02:37;10.07;;;5.70;;
15931;SDS011;8065;49.520;11.284;2024-01-30T04:05:05;10.13;;;6.03;;
15931;SDS011;8065;49.520;11.284;2024-01-30T04:07:37;10.23;;;6.83;;
15931;SDS011;8065;49.520;11.284;2024-01-30T04:10:06;7.33;;;5.57;;
15931;SDS011;8065;49.520;11.284;2024-01-30T04:12:35;10.30;;;5.97;;
15931;SDS011;8065;49.520;11.284;2024-01-30T04:15:04;9.73;;;5.87;;
15931;SDS011;8065;49.520;11.284;2024-01-30T04:17:33;8.97;;;5.73;;
15931;SDS011;8065;49.520;11.284;2024-01-30T04:20:01;10.97;;;6.27;;
15931;SDS011;8065;49.520;11.284;2024-01-30T04:22:30;7.43;;;5.50;;
15931;SDS011;8065;49.520;11.284;2024-01-30T04:25:01;10.03;;;5.63;;
15931;SDS011;8065;49.520;11.284;2024-01-30T04:27:29;8.37;;;5.30;;
15931;SDS011;8065;49.520;11.284;2024-01-30T04:29:57;8.03;;;6.00;;
15931;SDS011;8065;49.520;11.284;2024-01-30T04:32:25;8.50;;;5.60;;
15931;SDS011;8065;49.520;11.284;2024-01-30T04:34:54;9.40;;;5.70;;
15931;SDS011;8065;49.520;11.284;2024-01-30T04:37:22;9.60;;;5.57;;
15931;SDS011;8065;49.520;11.284;2024-01-30T04:39:51;9.37;;;6.07;;
15931;SDS011;8065;49.520;11.284;2024-01-30T04:42:21;9.13;;;6.13;;
15931;SDS011;8065;49.520;11.284;2024-01-30T04:44:50;9.03;;;6.03;;
15931;SDS011;8065;49.520;11.284;2024-01-30T04:47:18;8.17;;;6.00;;
15931;SDS011;8065;49.520;11.284;2024-01-30T04:49:46;6.97;;;5.47;;
15931;SDS011;8065;49.520;11.284;2024-01-30T04:52:15;8.00;;;6.03;;
15931;SDS011;8065;49.520;11.284;2024-01-30T04:54:43;9.00;;;6.00;;
15931;SDS011;8065;49.520;11.284;2024-01-30T04:57:12;8.43;;;5.83;;
15931;SDS011;8065;49.520;11.284;2024-01-30T04:59:43;7.83;;;5.83;;
15931;SDS011;8065;49.520;11.284;2024-01-30T05:02:11;9.10;;;5.83;;
15931;SDS011;8065;49.520;11.284;2024-01-30T05:04:40;10.93;;;6.70;;
15931;SDS011;8065;49.520;11.284;2024-01-30T05:07:08;10.47;;;6.37;;
15931;SDS011;8065;49.520;11.284;2024-01-30T05:09:37;11.40;;;7.27;;
15931;SDS011;8065;49.520;11.284;2024-01-30T05:12:06;10.70;;;7.17;;
15931;SDS011;8065;49.520;11.284;2024-01-30T05:14:35;10.37;;;7.17;;
15931;SDS011;8065;49.520;11.284;2024-01-30T05:17:06;10.63;;;6.80;;
15931;SDS011;8065;49.520;11.284;2024-01-30T05:19:35;12.50;;;7.23;;
15931;SDS011;8065;49.520;11.284;2024-01-30T05:22:03;11.90;;;7.13;;
15931;SDS011;8065;49.520;11.284;2024-01-30T05:24:33;10.17;;;7.63;;
15931;SDS011;8065;49.520;11.284;2024-01-30T05:27:01;10.47;;;7.43;;
15931;SDS011;8065;49.520;11.284;2024-01-30T05:29:29;8.90;;;6.93;;
15931;SDS011;8065;49.520;11.284;2024-01-30T05:31:58;9.27;;;7.17;;
15931;SDS011;8065;49.520;11.284;2024-01-30T05:34:29;8.57;;;6.87;;
15931;SDS011;8065;49.520;11.284;2024-01-30T05:36:57;10.43;;;7.27;;
15931;SDS011;8065;49.520;11.284;2024-01-30T05:39:25;9.73;;;7.10;;
15931;SDS011;8065;49.520;11.284;2024-01-30T05:41:58;10.60;;;6.90;;
15931;SDS011;8065;49.520;11.284;2024-01-30T05:44:26;9.83;;;6.50;;
15931;SDS011;8065;49.520;11.284;2024-01-30T05:46:54;11.53;;;7.07;;
15931;SDS011;8065;49.520;11.284;2024-01-30T05:49:23;13.30;;;7.80;;
15931;SDS011;8065;49.520;11.284;2024-01-30T05:51:53;13.13;;;7.23;;
15931;SDS011;8065;49.520;11.284;2024-01-30T05:54:22;12.20;;;8.07;;
15931;SDS011;8065;49.520;11.284;2024-01-30T05:56:50;10.37;;;7.23;;
15931;SDS011;8065;49.520;11.284;2024-01-30T05:59:18;9.80;;;7.50;;
15931;SDS011;8065;49.520;11.284;2024-01-30T06:01:47;13.67;;;8.03;;
15931;SDS011;8065;49.520;11.284;2024-01-30T06:04:15;9.13;;;7.07;;
15931;SDS011;8065;49.520;11.284;2024-01-30T06:06:43;12.13;;;7.63;;
15931;SDS011;8065;49.520;11.284;2024-01-30T06:09:14;13.20;;;8.07;;
15931;SDS011;8065;49.520;11.284;2024-01-30T06:11:42;10.53;;;7.87;;
15931;SDS011;8065;49.520;11.284;2024-01-30T06:14:11;16.07;;;9.80;;
15931;SDS011;8065;49.520;11.284;2024-01-30T06:16:39;14.47;;;8.93;;
15931;SDS011;8065;49.520;11.284;2024-01-30T06:19:07;13.40;;;8.97;;
15931;SDS011;8065;49.520;11.284;2024-01-30T06:21:35;13.70;;;9.60;;
15931;SDS011;8065;49.520;11.284;2024-01-30T06:24:04;13.30;;;9.00;;
15931;SDS011;8065;49.520;11.284;2024-01-30T06:26:36;24.10;;;14.10;;
15931;SDS011;8065;49.520;11.284;2024-01-30T06:29:04;32.23;;;20.23;;
15931;SDS011;8065;49.520;11.284;2024-01-30T06:31:32;29.13;;;19.00;;
15931;SDS011;8065;49.520;11.284;2024-01-30T06:34:01;28.00;;;18.23;;
15931;SDS011;8065;49.520;11.284;2024-01-30T06:36:29;22.63;;;14.10;;
15931;SDS011;8065;49.520;11.284;2024-01-30T06:38:57;21.63;;;12.63;;
15931;SDS011;8065;49.520;11.284;2024-01-30T06:41:25;25.07;;;15.90;;
15931;SDS011;8065;49.520;11.284;2024-01-30T06:43:57;28.67;;;19.23;;
15931;SDS011;8065;49.520;11.284;2024-01-30T06:46:25;22.43;;;15.90;;
15931;SDS011;8065;49.520;11.284;2024-01-30T06:48:54;17.67;;;11.43;;
15931;SDS011;8065;49.520;11.284;2024-01-30T06:51:22;14.23;;;10.10;;
15931;SDS011;8065;49.520;11.284;2024-01-30T06:53:50;14.47;;;9.30;;
15931;SDS011;8065;49.520;11.284;2024-01-30T06:56:18;11.90;;;9.33;;
15931;SDS011;8065;49.520;11.284;2024-01-30T06:58:47;15.07;;;9.87;;
15931;SDS011;8065;49.520;11.284;2024-01-30T07:01:18;12.37;;;9.53;;
15931;SDS011;8065;49.520;11.284;2024-01-30T07:03:47;13.30;;;9.43;;
15931;SDS011;8065;49.520;11.284;2024-01-30T07:06:15;15.47;;;12.20;;
15931;SDS011;8065;49.520;11.284;2024-01-30T07:08:43;17.23;;;10.97;;
15931;SDS011;8065;49.520;11.284;2024-01-30T07:11:17;15.57;;;13.27;;
15931;SDS011;8065;49.520;11.284;2024-01-30T07:13:47;15.03;;;11.77;;
15931;SDS011;8065;49.520;11.284;2024-01-30T07:16:15;17.13;;;12.10;;
15931;SDS011;8065;49.520;11.284;2024-01-30T07:18:49;22.03;;;14.83;;
15931;SDS011;8065;49.520;11.284;2024-01-30T07:21:17;18.10;;;13.13;;
15931;SDS011;8065;49.520;11.284;2024-01-30T07:23:46;17.77;;;12.77;;
15931;SDS011;8065;49.520;11.284;2024-01-30T07:26:15;17.17;;;12.53;;
15931;SDS011;8065;49.520;11.284;2024-01-30T07:28:43;36.57;;;27.33;;
15931;SDS011;8065;49.520;11.284;2024-01-30T07:31:11;28.50;;;21.53;;
15931;SDS011;8065;49.520;11.284;2024-01-30T07:33:40;40.63;;;23.00;;
15931;SDS011;8065;49.520;11.284;2024-01-30T07:36:11;19.60;;;12.53;;
15931;SDS011;8065;49.520;11.284;2024-01-30T07:38:39;33.97;;;19.80;;
15931;SDS011;8065;49.520;11.284;2024-01-30T07:41:08;30.33;;;18.93;;
15931;SDS011;8065;49.520;11.284;2024-01-30T07:43:37;25.00;;;17.40;;
15931;SDS011;8065;49.520;11.284;2024-01-30T07:46:06;24.70;;;15.67;;
15931;SDS011;8065;49.520;11.284;2024-01-30T07:48:35;27.37;;;16.03;;
15931;SDS011;8065;49.520;11.284;2024-01-30T07:51:03;37.20;;;23.10;;
15931;SDS011;8065;49.520;11.284;2024-01-30T07:53:34;43.83;;;27.10;;
15931;SDS011;8065;49.520;11.284;2024-01-30T07:56:02;48.97;;;25.43;;
15931;SDS011;8065;49.520;11.284;2024-01-30T07:58:31;31.27;;;18.90;;
15931;SDS011;8065;49.520;11.284;2024-01-30T08:00:59;31.17;;;16.17;;
15931;SDS011;8065;49.520;11.284;2024-01-30T08:03:28;23.20;;;15.03;;
15931;SDS011;8065;49.520;11.284;2024-01-30T08:05:56;42.20;;;21.60;;
15931;SDS011;8065;49.520;11.284;2024-01-30T08:08:24;28.10;;;16.87;;
15931;SDS011;8065;49.520;11.284;2024-01-30T08:10:55;30.83;;;17.30;;
15931;SDS011;8065;49.520;11.284;2024-01-30T08:13:24;21.00;;;14.67;;
15931;SDS011;8065;49.520;11.284;2024-01-30T08:15:52;20.23;;;13.43;;
15931;SDS011;8065;49.520;11.284;2024-01-30T08:18:20;21.67;;;13.73;;
15931;SDS011;8065;49.520;11.284;2024-01-30T08:20:48;19.93;;;13.63;;
15931;SDS011;8065;49.520;11.284;2024-01-30T08:23:17;19.43;;;13.60;;
15931;SDS011;8065;49.520;11.284;2024-01-30T08:25:45;21.30;;;13.17;;
15931;SDS011;8065;49.520;11.284;2024-01-30T08:28:16;19.60;;;13.63;;
15931;SDS011;8065;49.520;11.284;2024-01-30T08:30:44;23.37;;;13.07;;
15931;SDS011;8065;49.520;11.284;2024-01-30T08:33:12;22.40;;;13.20;;
15931;SDS011;8065;49.520;11.284;2024-01-30T08:35:41;24.43;;;13.87;;
15931;SDS011;8065;49.520;11.284;2024-01-30T08:38:09;19.40;;;13.60;;
15931;SDS011;8065;49.520;11.284;2024-01-30T08:40:37;18.73;;;12.93;;
15931;SDS011;8065;49.520;11.284;2024-01-30T08:43:06;21.37;;;13.00;;
15931;SDS011;8065;49.520;11.284;2024-01-30T08:45:37;19.67;;;13.27;;
15931;SDS011;8065;49.520;11.284;2024-01-30T08:48:06;15.37;;;12.47;;
15931;SDS011;8065;49.520;11.284;2024-01-30T08:50:35;19.13;;;13.10;;
15931;SDS011;8065;49.520;11.284;2024-01-30T08:53:04;16.90;;;13.30;;
15931;SDS011;8065;49.520;11.284;2024-01-30T08:55:32;18.50;;;13.40;;
15931;SDS011;8065;49.520;11.284;2024-01-30T08:58:00;19.30;;;13.33;;
15931;SDS011;8065;49.520;11.284;2024-01-30T09:00:30;19.33;;;14.13;;
15931;SDS011;8065;49.520;11.284;2024-01-30T09:03:01;22.70;;;14.47;;
15931;SDS011;8065;49.520;11.284;2024-01-30T09:05:29;18.23;;;13.27;;
15931;SDS011;8065;49.520;11.284;2024-01-30T09:07:57;20.63;;;13.90;;
15931;SDS011;8065;49.520;11.284;2024-01-30T09:10:25;19.80;;;13.33;;
15931;SDS011;8065;49.520;11.284;2024-01-30T09:12:54;18.93;;;13.77;;
15931;SDS011;8065;49.520;11.284;2024-01-30T09:15:22;18.67;;;13.97;;
15931;SDS011;8065;49.520;11.284;2024-01-30T09:17:51;19.23;;;12.97;;
15931;SDS011;8065;49.520;11.284;2024-01-30T09:20:21;21.00;;;13.87;;
15931;SDS011;8065;49.520;11.284;2024-01-30T09:22:50;19.10;;;14.20;;
15931;SDS011;8065;49.520;11.284;2024-01-30T09:25:18;19.23;;;13.97;;
15931;SDS011;8065;49.520;11.284;2024-01-30T09:27:46;20.60;;;13.93;;
15931;SDS011;8065;49.520;11.284;2024-01-30T09:30:15;20.37;;;14.37;;
15931;SDS011;8065;49.520;11.284;2024-01-30T09:32:43;22.87;;;15.17;;
15931;SDS011;8065;49.520;11.284;2024-01-30T09:35:12;23.53;;;16.47;;
15931;SDS011;8065;49.520;11.284;2024-01-30T09:37:43;20.97;;;15.07;;
15931;SDS011;8065;49.520;11.284;2024-01-30T09:40:11;18.90;;;14.13;;
15931;SDS011;8065;49.520;11.284;2024-01-30T09:42:43;21.80;;;14.80;;
15931;SDS011;8065;49.520;11.284;2024-01-30T09:45:15;25.53;;;15.97;;
15931;SDS011;8065;49.520;11.284;2024-01-30T09:47:45;23.83;;;15.23;;
15931;SDS011;8065;49.520;11.284;2024-01-30T09:50:14;24.33;;;15.03;;
15931;SDS011;8065;49.520;11.284;2024-01-30T09:52:46;18.77;;;14.20;;
15931;SDS011;8065;49.520;11.284;2024-01-30T09:55:15;26.57;;;15.57;;
15931;SDS011;8065;49.520;11.284;2024-01-30T09:57:43;20.73;;;14.37;;
15931;SDS011;8065;49.520;11.284;2024-01-30T10:00:12;20.43;;;14.60;;
15931;SDS011;8065;49.520;11.284;2024-01-30T10:02:41;20.33;;;15.30;;
15931;SDS011;8065;49.520;11.284;2024-01-30T10:05:10;20.70;;;15.43;;
15931;SDS011;8065;49.520;11.284;2024-01-30T10:07:52;20.13;;;15.27;;
15931;SDS011;8065;49.520;11.284;2024-01-30T10:10:21;22.80;;;15.77;;
15931;SDS011;8065;49.520;11.284;2024-01-30T10:12:50;22.33;;;15.57;;
15931;SDS011;8065;49.520;11.284;2024-01-30T10:15:18;19.37;;;14.60;;
15931;SDS011;8065;49.520;11.284;2024-01-30T10:17:46;20.53;;;14.67;;
15931;SDS011;8065;49.520;11.284;2024-01-30T10:20:15;21.10;;;14.70;;
15931;SDS011;8065;49.520;11.284;2024-01-30T10:22:44;19.80;;;13.67;;
15931;SDS011;8065;49.520;11.284;2024-01-30T10:25:15;18.57;;;14.17;;
15931;SDS011;8065;49.520;11.284;2024-01-30T10:27:44;17.10;;;13.43;;
15931;SDS011;8065;49.520;11.284;2024-01-30T10:30:13;22.83;;;13.87;;
15931;SDS011;8065;49.520;11.284;2024-01-30T10:32:41;20.77;;;15.07;;
15931;SDS011;8065;49.520;11.284;2024-01-30T10:35:10;20.50;;;14.20;;
15931;SDS011;8065;49.520;11.284;2024-01-30T10:37:38;19.77;;;14.23;;
15931;SDS011;8065;49.520;11.284;2024-01-30T10:40:07;18.10;;;14.53;;
15931;SDS011;8065;49.520;11.284;2024-01-30T10:42:40;17.83;;;13.37;;
15931;SDS011;8065;49.520;11.284;2024-01-30T10:45:11;22.27;;;14.30;;
15931;SDS011;8065;49.520;11.284;2024-01-30T10:47:42;18.93;;;14.60;;
15931;SDS011;8065;49.520;11.284;2024-01-30T10:50:16;18.67;;;13.00;;
15931;SDS011;8065;49.520;11.284;2024-01-30T10:52:44;16.50;;;13.27;;
15931;SDS011;8065;49.520;11.284;2024-01-30T10:55:13;19.67;;;14.73;;
15931;SDS011;8065;49.520;11.284;2024-01-30T10:57:46;20.10;;;14.80;;
15931;SDS011;8065;49.520;11.284;2024-01-30T11:00:14;20.00;;;14.60;;
15931;SDS011;8065;49.520;11.284;2024-01-30T11:02:47;20.70;;;14.83;;
15931;SDS011;8065;49.520;11.284;2024-01-30T11:05:23;20.77;;;14.83;;
15931;SDS011;8065;49.520;11.284;2024-01-30T11:07:52;18.63;;;13.90;;
15931;SDS011;8065;49.520;11.284;2024-01-30T11:10:21;24.27;;;14.70;;
15931;SDS011;8065;49.520;11.284;2024-01-30T11:12:55;19.63;;;14.40;;
15931;SDS011;8065;49.520;11.284;2024-01-30T11:15:23;19.57;;;12.83;;
15931;SDS011;8065;49.520;11.284;2024-01-30T11:17:52;20.43;;;13.40;;
15931;SDS011;8065;49.520;11.284;2024-01-30T11:20:20;18.87;;;13.87;;
15931;SDS011;8065;49.520;11.284;2024-01-30T11:22:50;18.87;;;14.53;;
15931;SDS011;8065;49.520;11.284;2024-01-30T11:25:20;20.87;;;14.37;;
15931;SDS011;8065;49.520;11.284;2024-01-30T11:27:50;20.83;;;15.07;;
15931;SDS011;8065;49.520;11.284;2024-01-30T11:30:25;21.67;;;15.47;;
15931;SDS011;8065;49.520;11.284;2024-01-30T11:33:00;20.50;;;14.30;;
15931;SDS011;8065;49.520;11.284;2024-01-30T11:35:31;23.53;;;14.87;;
15931;SDS011;8065;49.520;11.284;2024-01-30T11:38:00;19.77;;;14.20;;
15931;SDS011;8065;49.520;11.284;2024-01-30T11:40:30;21.53;;;13.67;;
15931;SDS011;8065;49.520;11.284;2024-01-30T11:43:01;19.00;;;13.23;;
15931;SDS011;8065;49.520;11.284;2024-01-30T11:45:33;19.37;;;13.10;;
15931;SDS011;8065;49.520;11.284;2024-01-30T11:48:03;20.40;;;13.17;;
15931;SDS011;8065;49.520;11.284;2024-01-30T11:50:32;20.57;;;13.47;;
15931;SDS011;8065;49.520;11.284;2024-01-30T11:53:03;17.67;;;13.53;;
15931;SDS011;8065;49.520;11.284;2024-01-30T11:55:32;20.27;;;13.40;;
15931;SDS011;8065;49.520;11.284;2024-01-30T11:58:02;19.10;;;13.67;;
15931;SDS011;8065;49.520;11.284;2024-01-30T12:00:34;18.60;;;12.60;;
15931;SDS011;8065;49.520;11.284;2024-01-30T12:03:02;18.63;;;12.60;;
15931;SDS011;8065;49.520;11.284;2024-01-30T12:05:32;19.63;;;12.67;;
15931;SDS011;8065;49.520;11.284;2024-01-30T12:08:01;20.03;;;13.33;;
15931;SDS011;8065;49.520;11.284;2024-01-30T12:10:30;21.20;;;13.57;;
15931;SDS011;8065;49.520;11.284;2024-01-30T12:13:01;16.33;;;13.67;;
15931;SDS011;8065;49.520;11.284;2024-01-30T12:15:29;21.00;;;14.90;;
15931;SDS011;8065;49.520;11.284;2024-01-30T12:18:07;19.50;;;14.13;;
15931;SDS011;8065;49.520;11.284;2024-01-30T12:20:36;21.07;;;13.90;;
15931;SDS011;8065;49.520;11.284;2024-01-30T12:23:04;19.93;;;13.47;;
15931;SDS011;8065;49.520;11.284;2024-01-30T12:25:33;18.07;;;13.67;;
15931;SDS011;8065;49.520;11.284;2024-01-30T12:28:01;18.97;;;13.37;;
15931;SDS011;8065;49.520;11.284;2024-01-30T12:30:31;19.00;;;14.87;;
15931;SDS011;8065;49.520;11.284;2024-01-30T12:32:59;21.83;;;14.47;;
15931;SDS011;8065;49.520;11.284;2024-01-30T12:35:32;19.87;;;14.33;;
15931;SDS011;8065;49.520;11.284;2024-01-30T12:38:00;22.20;;;14.03;;
15931;SDS011;8065;49.520;11.284;2024-01-30T12:40:29;18.53;;;13.37;;
15931;SDS011;8065;49.520;11.284;2024-01-30T12:43:01;17.60;;;13.17;;
15931;SDS011;8065;49.520;11.284;2024-01-30T12:45:30;15.47;;;13.03;;
15931;SDS011;8065;49.520;11.284;2024-01-30T12:47:58;18.83;;;13.80;;
15931;SDS011;8065;49.520;11.284;2024-01-30T12:50:26;21.93;;;15.00;;
15931;SDS011;8065;49.520;11.284;2024-01-30T12:52:57;22.07;;;15.13;;
15931;SDS011;8065;49.520;11.284;2024-01-30T12:55:26;19.87;;;14.50;;
15931;SDS011;8065;49.520;11.284;2024-01-30T12:57:55;20.77;;;13.50;;
15931;SDS011;8065;49.520;11.284;2024-01-30T13:00:23;22.67;;;15.00;;
15931;SDS011;8065;49.520;11.284;2024-01-30T13:02:52;20.40;;;13.87;;
15931;SDS011;8065;49.520;11.284;2024-01-30T13:05:20;20.80;;;14.17;;
15931;SDS011;8065;49.520;11.284;2024-01-30T13:07:50;21.03;;;14.60;;
15931;SDS011;8065;49.520;11.284;2024-01-30T13:10:21;17.40;;;13.37;;
15931;SDS011;8065;49.520;11.284;2024-01-30T13:12:49;19.57;;;14.00;;
15931;SDS011;8065;49.520;11.284;2024-01-30T13:15:18;21.10;;;14.40;;
15931;SDS011;8065;49.520;11.284;2024-01-30T13:17:47;17.80;;;13.80;;
15931;SDS011;8065;49.520;11.284;2024-01-30T13:20:18;18.30;;;14.50;;
15931;SDS011;8065;49.520;11.284;2024-01-30T13:22:47;17.93;;;14.20;;
15931;SDS011;8065;49.520;11.284;2024-01-30T13:25:16;19.90;;;13.67;;
15931;SDS011;8065;49.520;11.284;2024-01-30T13:27:47;17.37;;;13.17;;
15931;SDS011;8065;49.520;11.284;2024-01-30T13:30:15;18.57;;;14.23;;
15931;SDS011;8065;49.520;11.284;2024-01-30T13:32:44;19.33;;;14.03;;
15931;SDS011;8065;49.520;11.284;2024-01-30T13:35:12;17.67;;;12.77;;
15931;SDS011;8065;49.520;11.284;2024-01-30T13:37:40;17.90;;;13.87;;
15931;SDS011;8065;49.520;11.284;2024-01-30T13:40:09;19.00;;;13.43;;
15931;SDS011;8065;49.520;11.284;2024-01-30T13:42:39;20.77;;;14.93;;
15931;SDS011;8065;49.520;11.284;2024-01-30T13:45:10;20.33;;;14.40;;
15931;SDS011;8065;49.520;11.284;2024-01-30T13:47:38;17.27;;;13.87;;
15931;SDS011;8065;49.520;11.284;2024-01-30T13:50:07;20.20;;;13.73;;
15931;SDS011;8065;49.520;11.284;2024-01-30T13:52:40;20.57;;;14.03;;
15931;SDS011;8065;49.520;11.284;2024-01-30T13:55:08;21.53;;;14.53;;
15931;SDS011;8065;49.520;11.284;2024-01-30T13:57:36;20.10;;;14.47;;
15931;SDS011;8065;49.520;11.284;2024-01-30T14:00:05;17.23;;;14.37;;
15931;SDS011;8065;49.520;11.284;2024-01-30T14:02:37;17.33;;;13.13;;
15931;SDS011;8065;49.520;11.284;2024-01-30T14:05:05;23.73;;;14.50;;
15931;SDS011;8065;49.520;11.284;2024-01-30T14:07:35;18.97;;;13.80;;
15931;SDS011;8065;49.520;11.284;2024-01-30T14:10:04;18.77;;;14.00;;
15931;SDS011;8065;49.520;11.284;2024-01-30T14:12:33;21.87;;;13.57;;
15931;SDS011;8065;49.520;11.284;2024-01-30T14:15:02;20.03;;;13.87;;
15931;SDS011;8065;49.520;11.284;2024-01-30T14:17:30;25.67;;;17.30;;
15931;SDS011;8065;49.520;11.284;2024-01-30T14:20:01;17.93;;;14.77;;
15931;SDS011;8065;49.520;11.284;2024-01-30T14:22:30;16.93;;;13.10;;
15931;SDS011;8065;49.520;11.284;2024-01-30T14:24:58;19.40;;;13.67;;
15931;SDS011;8065;49.520;11.284;2024-01-30T14:27:28;20.90;;;14.07;;
15931;SDS011;8065;49.520;11.284;2024-01-30T14:29:57;22.77;;;14.27;;
15931;SDS011;8065;49.520;11.284;2024-01-30T14:32:25;18.37;;;13.63;;
15931;SDS011;8065;49.520;11.284;2024-01-30T14:34:53;17.63;;;13.33;;
15931;SDS011;8065;49.520;11.284;2024-01-30T14:37:24;18.93;;;13.73;;
15931;SDS011;8065;49.520;11.284;2024-01-30T14:39:55;18.00;;;13.33;;
15931;SDS011;8065;49.520;11.284;2024-01-30T14:42:23;15.83;;;12.67;;